sensor_id;sensor_type;location;lat;lon;timestamp;P1;durP1;ratioP1;P2;durP2;ratioP2
39612;SDS011;25303;48.896;13.342;2023-07-08T00:01:44;4.38;;;3.00;;
39612;SDS011;25303;48.896;13.342;2023-07-08T00:04:27;4.53;;;3.00;;
39612;SDS011;25303;48.896;13.342;2023-07-08T00:07:10;5.60;;;2.78;;
39612;SDS011;25303;48.896;13.342;2023-07-08T00:09:55;3.85;;;2.90;;
39612;SDS011;25303;48.896;13.342;2023-07-08T00:12:38;5.03;;;2.80;;
39612;SDS011;25303;48.896;13.342;2023-07-08T00:15:22;4.85;;;3.10;;
39612;SDS011;25303;48.896;13.342;2023-07-08T00:18:11;4.70;;;3.22;;
39612;SDS011;25303;48.896;13.342;2023-07-08T00:20:55;5.90;;;3.47;;
39612;SDS011;25303;48.896;13.342;2023-07-08T00:23:42;4.82;;;3.00;;
39612;SDS011;25303;48.896;13.342;2023-07-08T00:26:26;6.30;;;3.00;;
39612;SDS011;25303;48.896;13.342;2023-07-08T00:29:14;6.07;;;2.90;;
39612;SDS011;25303;48.896;13.342;2023-07-08T00:31:58;5.50;;;2.53;;
39612;SDS011;25303;48.896;13.342;2023-07-08T00:34:43;5.38;;;3.00;;
39612;SDS011;25303;48.896;13.342;2023-07-08T00:37:26;5.65;;;2.72;;
39612;SDS011;25303;48.896;13.342;2023-07-08T00:40:15;5.10;;;3.35;;
39612;SDS011;25303;48.896;13.342;2023-07-08T00:43:01;4.88;;;2.83;;
39612;SDS011;25303;48.896;13.342;2023-07-08T00:45:49;4.38;;;2.65;;
39612;SDS011;25303;48.896;13.342;2023-07-08T00:48:43;5.32;;;2.83;;
39612;SDS011;25303;48.896;13.342;2023-07-08T00:54:12;5.75;;;2.55;;
39612;SDS011;25303;48.896;13.342;2023-07-08T00:59:43;4.88;;;2.70;;
39612;SDS011;25303;48.896;13.342;2023-07-08T01:02:31;4.93;;;2.70;;
39612;SDS011;25303;48.896;13.342;2023-07-08T01:05:19;4.50;;;2.80;;
39612;SDS011;25303;48.896;13.342;2023-07-08T01:08:06;4.97;;;3.20;;
39612;SDS011;25303;48.896;13.342;2023-07-08T01:10:50;5.30;;;2.80;;
39612;SDS011;25303;48.896;13.342;2023-07-08T01:13:41;4.70;;;2.95;;
39612;SDS011;25303;48.896;13.342;2023-07-08T01:16:26;4.65;;;2.78;;
39612;SDS011;25303;48.896;13.342;2023-07-08T01:19:12;4.43;;;2.97;;
39612;SDS011;25303;48.896;13.342;2023-07-08T01:22:00;4.80;;;2.80;;
39612;SDS011;25303;48.896;13.342;2023-07-08T01:27:27;3.47;;;2.40;;
39612;SDS011;25303;48.896;13.342;2023-07-08T01:30:10;3.88;;;2.58;;
39612;SDS011;25303;48.896;13.342;2023-07-08T01:32:54;5.80;;;3.13;;
39612;SDS011;25303;48.896;13.342;2023-07-08T01:35:40;3.63;;;2.40;;
39612;SDS011;25303;48.896;13.342;2023-07-08T01:38:25;6.55;;;2.95;;
39612;SDS011;25303;48.896;13.342;2023-07-08T01:41:11;4.30;;;2.55;;
39612;SDS011;25303;48.896;13.342;2023-07-08T01:43:54;4.40;;;2.60;;
39612;SDS011;25303;48.896;13.342;2023-07-08T01:46:37;4.03;;;2.83;;
39612;SDS011;25303;48.896;13.342;2023-07-08T01:49:21;3.83;;;2.40;;
39612;SDS011;25303;48.896;13.342;2023-07-08T01:52:05;4.55;;;2.30;;
39612;SDS011;25303;48.896;13.342;2023-07-08T01:54:55;3.40;;;2.45;;
39612;SDS011;25303;48.896;13.342;2023-07-08T01:57:38;5.50;;;2.88;;
39612;SDS011;25303;48.896;13.342;2023-07-08T02:00:21;5.50;;;2.60;;
39612;SDS011;25303;48.896;13.342;2023-07-08T02:03:04;4.25;;;2.60;;
39612;SDS011;25303;48.896;13.342;2023-07-08T02:05:47;4.20;;;2.67;;
39612;SDS011;25303;48.896;13.342;2023-07-08T02:08:30;3.90;;;2.38;;
39612;SDS011;25303;48.896;13.342;2023-07-08T02:11:15;4.20;;;2.55;;
39612;SDS011;25303;48.896;13.342;2023-07-08T02:13:58;4.05;;;2.80;;
39612;SDS011;25303;48.896;13.342;2023-07-08T02:16:42;4.78;;;2.40;;
39612;SDS011;25303;48.896;13.342;2023-07-08T02:19:25;6.57;;;2.95;;
39612;SDS011;25303;48.896;13.342;2023-07-08T02:22:09;4.70;;;2.80;;
39612;SDS011;25303;48.896;13.342;2023-07-08T02:24:52;4.82;;;2.72;;
39612;SDS011;25303;48.896;13.342;2023-07-08T02:27:37;4.35;;;2.70;;
39612;SDS011;25303;48.896;13.342;2023-07-08T02:30:20;4.45;;;2.65;;
39612;SDS011;25303;48.896;13.342;2023-07-08T02:33:03;5.00;;;2.47;;
39612;SDS011;25303;48.896;13.342;2023-07-08T02:35:46;4.20;;;2.58;;
39612;SDS011;25303;48.896;13.342;2023-07-08T02:38:29;3.95;;;2.50;;
39612;SDS011;25303;48.896;13.342;2023-07-08T02:41:13;4.38;;;2.30;;
39612;SDS011;25303;48.896;13.342;2023-07-08T02:43:57;4.38;;;2.78;;
39612;SDS011;25303;48.896;13.342;2023-07-08T02:46:40;3.55;;;2.17;;
39612;SDS011;25303;48.896;13.342;2023-07-08T02:49:23;4.50;;;2.30;;
39612;SDS011;25303;48.896;13.342;2023-07-08T02:52:06;4.32;;;2.35;;
39612;SDS011;25303;48.896;13.342;2023-07-08T02:54:49;3.60;;;2.33;;
39612;SDS011;25303;48.896;13.342;2023-07-08T02:57:32;7.78;;;2.17;;
39612;SDS011;25303;48.896;13.342;2023-07-08T03:00:17;4.85;;;2.90;;
39612;SDS011;25303;48.896;13.342;2023-07-08T03:03:00;3.85;;;2.45;;
39612;SDS011;25303;48.896;13.342;2023-07-08T03:05:43;5.43;;;2.50;;
39612;SDS011;25303;48.896;13.342;2023-07-08T03:08:26;3.38;;;2.15;;
39612;SDS011;25303;48.896;13.342;2023-07-08T03:11:09;5.53;;;2.67;;
39612;SDS011;25303;48.896;13.342;2023-07-08T03:13:54;3.20;;;2.00;;
39612;SDS011;25303;48.896;13.342;2023-07-08T03:16:38;4.95;;;2.67;;
39612;SDS011;25303;48.896;13.342;2023-07-08T03:19:21;3.95;;;2.10;;
39612;SDS011;25303;48.896;13.342;2023-07-08T03:22:06;3.22;;;2.05;;
39612;SDS011;25303;48.896;13.342;2023-07-08T03:24:49;4.00;;;2.25;;
39612;SDS011;25303;48.896;13.342;2023-07-08T03:27:35;4.70;;;2.40;;
39612;SDS011;25303;48.896;13.342;2023-07-08T03:30:19;4.23;;;2.73;;
39612;SDS011;25303;48.896;13.342;2023-07-08T03:33:03;4.95;;;2.22;;
39612;SDS011;25303;48.896;13.342;2023-07-08T03:35:47;3.75;;;2.50;;
39612;SDS011;25303;48.896;13.342;2023-07-08T03:38:30;3.65;;;2.20;;
39612;SDS011;25303;48.896;13.342;2023-07-08T03:41:13;4.10;;;2.47;;
39612;SDS011;25303;48.896;13.342;2023-07-08T03:43:56;4.30;;;2.10;;
39612;SDS011;25303;48.896;13.342;2023-07-08T03:46:40;3.17;;;2.00;;
39612;SDS011;25303;48.896;13.342;2023-07-08T03:49:25;3.40;;;2.10;;
39612;SDS011;25303;48.896;13.342;2023-07-08T03:52:12;3.08;;;1.92;;
39612;SDS011;25303;48.896;13.342;2023-07-08T03:54:59;4.13;;;2.38;;
39612;SDS011;25303;48.896;13.342;2023-07-08T03:57:43;4.18;;;2.13;;
39612;SDS011;25303;48.896;13.342;2023-07-08T04:00:26;5.13;;;2.28;;
39612;SDS011;25303;48.896;13.342;2023-07-08T04:03:12;3.17;;;1.88;;
39612;SDS011;25303;48.896;13.342;2023-07-08T04:05:56;3.90;;;2.40;;
39612;SDS011;25303;48.896;13.342;2023-07-08T04:08:40;4.18;;;1.95;;
39612;SDS011;25303;48.896;13.342;2023-07-08T04:11:23;5.05;;;2.30;;
39612;SDS011;25303;48.896;13.342;2023-07-08T04:14:07;4.57;;;2.33;;
39612;SDS011;25303;48.896;13.342;2023-07-08T04:16:52;3.20;;;1.90;;
39612;SDS011;25303;48.896;13.342;2023-07-08T04:19:38;4.25;;;2.28;;
39612;SDS011;25303;48.896;13.342;2023-07-08T04:22:26;3.65;;;2.13;;
39612;SDS011;25303;48.896;13.342;2023-07-08T04:25:10;4.72;;;2.38;;
39612;SDS011;25303;48.896;13.342;2023-07-08T04:27:53;4.53;;;2.23;;
39612;SDS011;25303;48.896;13.342;2023-07-08T04:30:36;4.32;;;2.20;;
39612;SDS011;25303;48.896;13.342;2023-07-08T04:33:22;3.55;;;2.38;;
39612;SDS011;25303;48.896;13.342;2023-07-08T04:36:08;2.78;;;1.90;;
39612;SDS011;25303;48.896;13.342;2023-07-08T04:38:55;5.50;;;1.92;;
39612;SDS011;25303;48.896;13.342;2023-07-08T04:41:39;3.42;;;2.08;;
39612;SDS011;25303;48.896;13.342;2023-07-08T04:44:25;3.40;;;2.20;;
39612;SDS011;25303;48.896;13.342;2023-07-08T04:47:08;3.35;;;2.13;;
39612;SDS011;25303;48.896;13.342;2023-07-08T04:49:55;3.75;;;2.10;;
39612;SDS011;25303;48.896;13.342;2023-07-08T04:52:38;4.07;;;2.08;;
39612;SDS011;25303;48.896;13.342;2023-07-08T04:55:22;4.22;;;2.13;;
39612;SDS011;25303;48.896;13.342;2023-07-08T04:58:05;4.18;;;2.22;;
39612;SDS011;25303;48.896;13.342;2023-07-08T05:00:48;3.65;;;2.20;;
39612;SDS011;25303;48.896;13.342;2023-07-08T05:03:31;3.15;;;1.90;;
39612;SDS011;25303;48.896;13.342;2023-07-08T05:06:14;3.42;;;2.05;;
39612;SDS011;25303;48.896;13.342;2023-07-08T05:08:57;4.40;;;2.13;;
39612;SDS011;25303;48.896;13.342;2023-07-08T05:11:42;4.13;;;1.98;;
39612;SDS011;25303;48.896;13.342;2023-07-08T05:14:26;3.45;;;1.98;;
39612;SDS011;25303;48.896;13.342;2023-07-08T05:17:09;3.95;;;1.80;;
39612;SDS011;25303;48.896;13.342;2023-07-08T05:19:54;4.25;;;2.40;;
39612;SDS011;25303;48.896;13.342;2023-07-08T05:22:57;4.03;;;2.17;;
39612;SDS011;25303;48.896;13.342;2023-07-08T05:25:40;5.07;;;2.30;;
39612;SDS011;25303;48.896;13.342;2023-07-08T05:28:24;3.35;;;1.98;;
39612;SDS011;25303;48.896;13.342;2023-07-08T05:31:07;3.50;;;2.30;;
39612;SDS011;25303;48.896;13.342;2023-07-08T05:33:50;3.38;;;2.00;;
39612;SDS011;25303;48.896;13.342;2023-07-08T05:36:33;4.80;;;1.73;;
39612;SDS011;25303;48.896;13.342;2023-07-08T05:39:16;2.85;;;1.90;;
39612;SDS011;25303;48.896;13.342;2023-07-08T05:41:59;2.40;;;1.70;;
39612;SDS011;25303;48.896;13.342;2023-07-08T05:44:43;3.28;;;2.03;;
39612;SDS011;25303;48.896;13.342;2023-07-08T05:47:26;4.05;;;2.25;;
39612;SDS011;25303;48.896;13.342;2023-07-08T05:50:09;2.75;;;1.65;;
39612;SDS011;25303;48.896;13.342;2023-07-08T05:52:52;2.45;;;1.67;;
39612;SDS011;25303;48.896;13.342;2023-07-08T05:55:36;2.65;;;1.88;;
39612;SDS011;25303;48.896;13.342;2023-07-08T05:58:19;3.00;;;1.80;;
39612;SDS011;25303;48.896;13.342;2023-07-08T06:01:08;4.70;;;2.00;;
39612;SDS011;25303;48.896;13.342;2023-07-08T06:03:51;2.25;;;1.42;;
39612;SDS011;25303;48.896;13.342;2023-07-08T06:06:35;2.42;;;1.50;;
39612;SDS011;25303;48.896;13.342;2023-07-08T06:09:18;4.25;;;2.13;;
39612;SDS011;25303;48.896;13.342;2023-07-08T06:12:01;4.03;;;2.17;;
39612;SDS011;25303;48.896;13.342;2023-07-08T06:14:45;3.22;;;1.90;;
39612;SDS011;25303;48.896;13.342;2023-07-08T06:17:29;2.75;;;1.65;;
39612;SDS011;25303;48.896;13.342;2023-07-08T06:20:12;3.00;;;1.75;;
39612;SDS011;25303;48.896;13.342;2023-07-08T06:22:55;2.83;;;1.88;;
39612;SDS011;25303;48.896;13.342;2023-07-08T06:25:38;2.70;;;1.73;;
39612;SDS011;25303;48.896;13.342;2023-07-08T06:28:21;2.50;;;1.80;;
39612;SDS011;25303;48.896;13.342;2023-07-08T06:31:04;3.75;;;1.90;;
39612;SDS011;25303;48.896;13.342;2023-07-08T06:33:49;2.78;;;1.90;;
39612;SDS011;25303;48.896;13.342;2023-07-08T06:36:32;3.10;;;1.73;;
39612;SDS011;25303;48.896;13.342;2023-07-08T06:39:15;3.20;;;1.70;;
39612;SDS011;25303;48.896;13.342;2023-07-08T06:41:58;3.60;;;1.92;;
39612;SDS011;25303;48.896;13.342;2023-07-08T06:44:45;3.05;;;1.77;;
39612;SDS011;25303;48.896;13.342;2023-07-08T06:47:34;3.40;;;2.00;;
39612;SDS011;25303;48.896;13.342;2023-07-08T06:50:18;3.65;;;1.80;;
39612;SDS011;25303;48.896;13.342;2023-07-08T06:53:01;2.95;;;1.65;;
39612;SDS011;25303;48.896;13.342;2023-07-08T06:55:45;2.45;;;1.65;;
39612;SDS011;25303;48.896;13.342;2023-07-08T06:58:28;3.05;;;1.70;;
39612;SDS011;25303;48.896;13.342;2023-07-08T07:01:11;3.67;;;2.05;;
39612;SDS011;25303;48.896;13.342;2023-07-08T07:03:54;3.17;;;1.70;;
39612;SDS011;25303;48.896;13.342;2023-07-08T07:06:38;3.85;;;2.00;;
39612;SDS011;25303;48.896;13.342;2023-07-08T07:09:21;3.20;;;1.80;;
39612;SDS011;25303;48.896;13.342;2023-07-08T07:12:05;4.20;;;1.80;;
39612;SDS011;25303;48.896;13.342;2023-07-08T07:14:49;2.90;;;1.70;;
39612;SDS011;25303;48.896;13.342;2023-07-08T07:17:34;3.42;;;2.03;;
39612;SDS011;25303;48.896;13.342;2023-07-08T07:20:18;3.22;;;1.80;;
39612;SDS011;25303;48.896;13.342;2023-07-08T07:23:02;3.80;;;1.70;;
39612;SDS011;25303;48.896;13.342;2023-07-08T07:25:45;2.00;;;1.40;;
39612;SDS011;25303;48.896;13.342;2023-07-08T07:28:29;2.30;;;1.60;;
39612;SDS011;25303;48.896;13.342;2023-07-08T07:31:12;4.15;;;2.13;;
39612;SDS011;25303;48.896;13.342;2023-07-08T07:33:56;2.72;;;1.80;;
39612;SDS011;25303;48.896;13.342;2023-07-08T07:36:39;2.40;;;1.65;;
39612;SDS011;25303;48.896;13.342;2023-07-08T07:39:23;2.55;;;1.52;;
39612;SDS011;25303;48.896;13.342;2023-07-08T07:42:06;2.60;;;1.70;;
39612;SDS011;25303;48.896;13.342;2023-07-08T07:44:50;3.05;;;1.90;;
39612;SDS011;25303;48.896;13.342;2023-07-08T07:47:33;11.35;;;2.15;;
39612;SDS011;25303;48.896;13.342;2023-07-08T07:50:16;2.80;;;1.63;;
39612;SDS011;25303;48.896;13.342;2023-07-08T07:53:00;1.88;;;1.42;;
39612;SDS011;25303;48.896;13.342;2023-07-08T07:55:44;2.47;;;1.80;;
39612;SDS011;25303;48.896;13.342;2023-07-08T07:58:27;3.70;;;1.60;;
39612;SDS011;25303;48.896;13.342;2023-07-08T08:01:10;2.00;;;1.58;;
39612;SDS011;25303;48.896;13.342;2023-07-08T08:03:54;2.40;;;1.67;;
39612;SDS011;25303;48.896;13.342;2023-07-08T08:06:38;2.55;;;1.70;;
39612;SDS011;25303;48.896;13.342;2023-07-08T08:09:21;3.97;;;1.98;;
39612;SDS011;25303;48.896;13.342;2023-07-08T08:12:07;2.38;;;1.73;;
39612;SDS011;25303;48.896;13.342;2023-07-08T08:14:52;3.70;;;2.20;;
39612;SDS011;25303;48.896;13.342;2023-07-08T08:17:36;3.42;;;1.90;;
39612;SDS011;25303;48.896;13.342;2023-07-08T08:20:19;5.07;;;2.30;;
39612;SDS011;25303;48.896;13.342;2023-07-08T08:23:03;3.75;;;1.80;;
39612;SDS011;25303;48.896;13.342;2023-07-08T08:25:48;3.15;;;2.13;;
39612;SDS011;25303;48.896;13.342;2023-07-08T08:31:16;3.75;;;2.28;;
39612;SDS011;25303;48.896;13.342;2023-07-08T08:34:00;3.75;;;1.65;;
39612;SDS011;25303;48.896;13.342;2023-07-08T08:36:43;2.65;;;1.80;;
39612;SDS011;25303;48.896;13.342;2023-07-08T08:39:27;4.67;;;1.77;;
39612;SDS011;25303;48.896;13.342;2023-07-08T08:42:13;2.42;;;1.75;;
39612;SDS011;25303;48.896;13.342;2023-07-08T08:45:02;3.55;;;1.98;;
39612;SDS011;25303;48.896;13.342;2023-07-08T08:47:47;2.72;;;2.00;;
39612;SDS011;25303;48.896;13.342;2023-07-08T08:50:35;2.00;;;1.60;;
39612;SDS011;25303;48.896;13.342;2023-07-08T08:53:24;2.78;;;1.90;;
39612;SDS011;25303;48.896;13.342;2023-07-08T08:56:09;3.22;;;2.22;;
39612;SDS011;25303;48.896;13.342;2023-07-08T08:59:02;4.60;;;2.35;;
39612;SDS011;25303;48.896;13.342;2023-07-08T09:01:57;2.90;;;1.67;;
39612;SDS011;25303;48.896;13.342;2023-07-08T09:04:43;3.85;;;1.95;;
39612;SDS011;25303;48.896;13.342;2023-07-08T09:07:27;2.97;;;1.98;;
39612;SDS011;25303;48.896;13.342;2023-07-08T09:10:15;2.22;;;1.40;;
39612;SDS011;25303;48.896;13.342;2023-07-08T09:13:08;2.50;;;2.00;;
39612;SDS011;25303;48.896;13.342;2023-07-08T09:16:01;2.45;;;1.65;;
39612;SDS011;25303;48.896;13.342;2023-07-08T09:18:55;3.92;;;1.65;;
39612;SDS011;25303;48.896;13.342;2023-07-08T09:21:44;2.40;;;1.60;;
39612;SDS011;25303;48.896;13.342;2023-07-08T09:24:33;1.75;;;1.52;;
39612;SDS011;25303;48.896;13.342;2023-07-08T09:27:22;5.07;;;1.67;;
39612;SDS011;25303;48.896;13.342;2023-07-08T09:30:07;2.40;;;1.65;;
39612;SDS011;25303;48.896;13.342;2023-07-08T09:32:55;3.08;;;1.90;;
39612;SDS011;25303;48.896;13.342;2023-07-08T09:35:40;3.03;;;2.00;;
39612;SDS011;25303;48.896;13.342;2023-07-08T09:38:25;2.97;;;2.10;;
39612;SDS011;25303;48.896;13.342;2023-07-08T09:41:08;3.08;;;1.88;;
39612;SDS011;25303;48.896;13.342;2023-07-08T09:43:53;2.80;;;1.98;;
39612;SDS011;25303;48.896;13.342;2023-07-08T09:46:46;2.88;;;2.00;;
39612;SDS011;25303;48.896;13.342;2023-07-08T09:49:31;2.90;;;1.80;;
39612;SDS011;25303;48.896;13.342;2023-07-08T09:52:18;3.03;;;1.92;;
39612;SDS011;25303;48.896;13.342;2023-07-08T09:55:01;3.45;;;2.00;;
39612;SDS011;25303;48.896;13.342;2023-07-08T09:57:45;3.75;;;1.90;;
39612;SDS011;25303;48.896;13.342;2023-07-08T10:00:32;2.60;;;2.13;;
39612;SDS011;25303;48.896;13.342;2023-07-08T10:03:19;3.40;;;2.35;;
39612;SDS011;25303;48.896;13.342;2023-07-08T10:06:06;3.53;;;1.88;;
39612;SDS011;25303;48.896;13.342;2023-07-08T10:09:01;2.53;;;1.88;;
39612;SDS011;25303;48.896;13.342;2023-07-08T10:11:47;4.63;;;2.28;;
39612;SDS011;25303;48.896;13.342;2023-07-08T10:14:34;3.00;;;1.92;;
39612;SDS011;25303;48.896;13.342;2023-07-08T10:17:21;4.55;;;2.22;;
39612;SDS011;25303;48.896;13.342;2023-07-08T10:20:07;3.13;;;2.38;;
39612;SDS011;25303;48.896;13.342;2023-07-08T10:22:56;4.60;;;2.42;;
39612;SDS011;25303;48.896;13.342;2023-07-08T10:25:58;3.75;;;2.25;;
39612;SDS011;25303;48.896;13.342;2023-07-08T10:28:48;2.92;;;2.42;;
39612;SDS011;25303;48.896;13.342;2023-07-08T10:31:40;3.67;;;2.20;;
39612;SDS011;25303;48.896;13.342;2023-07-08T10:34:40;3.92;;;2.38;;
39612;SDS011;25303;48.896;13.342;2023-07-08T10:37:29;2.97;;;1.90;;
39612;SDS011;25303;48.896;13.342;2023-07-08T10:40:31;3.35;;;1.98;;
39612;SDS011;25303;48.896;13.342;2023-07-08T10:43:29;2.88;;;2.10;;
39612;SDS011;25303;48.896;13.342;2023-07-08T10:46:30;3.50;;;2.63;;
39612;SDS011;25303;48.896;13.342;2023-07-08T10:49:27;3.40;;;2.30;;
39612;SDS011;25303;48.896;13.342;2023-07-08T10:52:31;3.25;;;2.42;;
39612;SDS011;25303;48.896;13.342;2023-07-08T10:55:27;3.05;;;2.40;;
39612;SDS011;25303;48.896;13.342;2023-07-08T11:01:53;2.38;;;1.88;;
39612;SDS011;25303;48.896;13.342;2023-07-08T11:04:55;3.05;;;2.22;;
39612;SDS011;25303;48.896;13.342;2023-07-08T11:07:48;3.97;;;2.30;;
39612;SDS011;25303;48.896;13.342;2023-07-08T11:10:38;5.32;;;2.63;;
39612;SDS011;25303;48.896;13.342;2023-07-08T11:13:27;3.30;;;2.50;;
39612;SDS011;25303;48.896;13.342;2023-07-08T11:16:16;2.63;;;2.22;;
39612;SDS011;25303;48.896;13.342;2023-07-08T11:19:05;4.30;;;2.45;;
39612;SDS011;25303;48.896;13.342;2023-07-08T11:21:55;2.67;;;2.20;;
39612;SDS011;25303;48.896;13.342;2023-07-08T11:24:43;3.25;;;2.53;;
39612;SDS011;25303;48.896;13.342;2023-07-08T11:27:29;4.60;;;2.30;;
39612;SDS011;25303;48.896;13.342;2023-07-08T11:30:20;2.83;;;2.10;;
39612;SDS011;25303;48.896;13.342;2023-07-08T11:33:10;3.78;;;2.20;;
39612;SDS011;25303;48.896;13.342;2023-07-08T11:35:55;3.53;;;2.60;;
39612;SDS011;25303;48.896;13.342;2023-07-08T11:38:47;4.18;;;2.70;;
39612;SDS011;25303;48.896;13.342;2023-07-08T11:41:31;4.47;;;2.25;;
39612;SDS011;25303;48.896;13.342;2023-07-08T11:44:14;4.43;;;3.20;;
39612;SDS011;25303;48.896;13.342;2023-07-08T11:46:57;4.22;;;3.00;;
39612;SDS011;25303;48.896;13.342;2023-07-08T11:49:42;4.43;;;2.80;;
39612;SDS011;25303;48.896;13.342;2023-07-08T11:52:25;3.22;;;2.33;;
39612;SDS011;25303;48.896;13.342;2023-07-08T11:55:12;3.10;;;2.30;;
39612;SDS011;25303;48.896;13.342;2023-07-08T11:58:18;3.80;;;2.38;;
39612;SDS011;25303;48.896;13.342;2023-07-08T12:01:04;4.53;;;2.63;;
39612;SDS011;25303;48.896;13.342;2023-07-08T12:04:16;4.68;;;2.80;;
39612;SDS011;25303;48.896;13.342;2023-07-08T12:07:14;3.75;;;2.67;;
39612;SDS011;25303;48.896;13.342;2023-07-08T12:10:03;3.10;;;2.53;;
39612;SDS011;25303;48.896;13.342;2023-07-08T12:12:47;4.13;;;2.72;;
39612;SDS011;25303;48.896;13.342;2023-07-08T12:15:31;4.38;;;2.90;;
39612;SDS011;25303;48.896;13.342;2023-07-08T12:18:19;3.55;;;2.15;;
39612;SDS011;25303;48.896;13.342;2023-07-08T12:21:04;3.67;;;2.72;;
39612;SDS011;25303;48.896;13.342;2023-07-08T12:23:51;2.80;;;2.40;;
39612;SDS011;25303;48.896;13.342;2023-07-08T12:29:17;3.22;;;2.60;;
39612;SDS011;25303;48.896;13.342;2023-07-08T12:32:00;5.05;;;2.80;;
39612;SDS011;25303;48.896;13.342;2023-07-08T12:34:43;3.63;;;2.50;;
39612;SDS011;25303;48.896;13.342;2023-07-08T12:37:27;3.63;;;2.67;;
39612;SDS011;25303;48.896;13.342;2023-07-08T12:40:12;3.17;;;2.30;;
39612;SDS011;25303;48.896;13.342;2023-07-08T12:42:56;4.55;;;2.53;;
39612;SDS011;25303;48.896;13.342;2023-07-08T12:45:42;4.28;;;2.58;;
39612;SDS011;25303;48.896;13.342;2023-07-08T12:48:25;3.33;;;2.30;;
39612;SDS011;25303;48.896;13.342;2023-07-08T12:51:15;4.00;;;2.50;;
39612;SDS011;25303;48.896;13.342;2023-07-08T12:54:02;2.55;;;2.15;;
39612;SDS011;25303;48.896;13.342;2023-07-08T12:56:46;2.80;;;2.17;;
39612;SDS011;25303;48.896;13.342;2023-07-08T12:59:30;3.70;;;2.60;;
39612;SDS011;25303;48.896;13.342;2023-07-08T13:02:14;3.50;;;2.60;;
39612;SDS011;25303;48.896;13.342;2023-07-08T13:05:00;2.80;;;2.13;;
39612;SDS011;25303;48.896;13.342;2023-07-08T13:07:46;3.88;;;2.53;;
39612;SDS011;25303;48.896;13.342;2023-07-08T13:10:29;4.03;;;2.65;;
39612;SDS011;25303;48.896;13.342;2023-07-08T13:13:15;3.20;;;2.58;;
39612;SDS011;25303;48.896;13.342;2023-07-08T13:16:03;2.60;;;2.30;;
39612;SDS011;25303;48.896;13.342;2023-07-08T13:18:47;4.82;;;3.65;;
39612;SDS011;25303;48.896;13.342;2023-07-08T13:21:31;3.80;;;2.80;;
39612;SDS011;25303;48.896;13.342;2023-07-08T13:24:15;3.55;;;2.53;;
39612;SDS011;25303;48.896;13.342;2023-07-08T13:27:00;3.20;;;2.65;;
39612;SDS011;25303;48.896;13.342;2023-07-08T13:29:44;3.22;;;2.40;;
39612;SDS011;25303;48.896;13.342;2023-07-08T13:32:31;3.92;;;2.67;;
39612;SDS011;25303;48.896;13.342;2023-07-08T13:35:21;3.35;;;2.78;;
39612;SDS011;25303;48.896;13.342;2023-07-08T13:38:11;3.80;;;2.75;;
39612;SDS011;25303;48.896;13.342;2023-07-08T13:40:59;4.05;;;3.00;;
39612;SDS011;25303;48.896;13.342;2023-07-08T13:43:44;3.70;;;2.70;;
39612;SDS011;25303;48.896;13.342;2023-07-08T13:46:33;3.10;;;2.63;;
39612;SDS011;25303;48.896;13.342;2023-07-08T13:49:20;3.80;;;2.80;;
39612;SDS011;25303;48.896;13.342;2023-07-08T13:52:06;4.05;;;2.55;;
39612;SDS011;25303;48.896;13.342;2023-07-08T13:54:58;2.90;;;2.40;;
39612;SDS011;25303;48.896;13.342;2023-07-08T13:57:44;2.83;;;2.53;;
39612;SDS011;25303;48.896;13.342;2023-07-08T14:03:14;3.42;;;2.42;;
39612;SDS011;25303;48.896;13.342;2023-07-08T14:06:00;3.88;;;2.83;;
39612;SDS011;25303;48.896;13.342;2023-07-08T14:08:43;3.38;;;2.90;;
39612;SDS011;25303;48.896;13.342;2023-07-08T14:11:26;4.10;;;2.65;;
39612;SDS011;25303;48.896;13.342;2023-07-08T14:14:09;3.38;;;2.70;;
39612;SDS011;25303;48.896;13.342;2023-07-08T14:16:53;4.05;;;2.97;;
39612;SDS011;25303;48.896;13.342;2023-07-08T14:19:38;3.15;;;2.67;;
39612;SDS011;25303;48.896;13.342;2023-07-08T14:22:22;4.00;;;2.97;;
39612;SDS011;25303;48.896;13.342;2023-07-08T14:25:08;3.65;;;2.72;;
39612;SDS011;25303;48.896;13.342;2023-07-08T14:27:53;3.63;;;2.90;;
39612;SDS011;25303;48.896;13.342;2023-07-08T14:30:44;3.75;;;2.70;;
39612;SDS011;25303;48.896;13.342;2023-07-08T14:33:30;4.13;;;3.07;;
39612;SDS011;25303;48.896;13.342;2023-07-08T14:36:14;3.55;;;2.70;;
39612;SDS011;25303;48.896;13.342;2023-07-08T14:38:57;4.50;;;2.60;;
39612;SDS011;25303;48.896;13.342;2023-07-08T14:41:40;3.80;;;2.75;;
39612;SDS011;25303;48.896;13.342;2023-07-08T14:44:26;3.92;;;2.50;;
39612;SDS011;25303;48.896;13.342;2023-07-08T14:47:16;4.15;;;2.78;;
39612;SDS011;25303;48.896;13.342;2023-07-08T14:50:01;3.10;;;2.38;;
39612;SDS011;25303;48.896;13.342;2023-07-08T14:52:56;3.70;;;2.27;;
39612;SDS011;25303;48.896;13.342;2023-07-08T14:55:39;3.08;;;2.47;;
39612;SDS011;25303;48.896;13.342;2023-07-08T14:58:22;3.45;;;2.58;;
39612;SDS011;25303;48.896;13.342;2023-07-08T15:01:08;3.97;;;2.90;;
39612;SDS011;25303;48.896;13.342;2023-07-08T15:03:57;3.75;;;2.55;;
39612;SDS011;25303;48.896;13.342;2023-07-08T15:06:41;4.53;;;2.55;;
39612;SDS011;25303;48.896;13.342;2023-07-08T15:09:25;3.43;;;2.47;;
39612;SDS011;25303;48.896;13.342;2023-07-08T15:12:09;3.85;;;2.40;;
39612;SDS011;25303;48.896;13.342;2023-07-08T15:14:53;3.58;;;2.30;;
39612;SDS011;25303;48.896;13.342;2023-07-08T15:17:36;4.90;;;2.50;;
39612;SDS011;25303;48.896;13.342;2023-07-08T15:20:20;4.38;;;2.53;;
39612;SDS011;25303;48.896;13.342;2023-07-08T15:23:04;3.05;;;2.30;;
39612;SDS011;25303;48.896;13.342;2023-07-08T15:25:48;3.80;;;2.65;;
39612;SDS011;25303;48.896;13.342;2023-07-08T15:28:38;3.00;;;2.50;;
39612;SDS011;25303;48.896;13.342;2023-07-08T15:31:28;7.57;;;2.65;;
39612;SDS011;25303;48.896;13.342;2023-07-08T15:34:17;3.65;;;2.75;;
39612;SDS011;25303;48.896;13.342;2023-07-08T15:37:01;4.68;;;2.72;;
39612;SDS011;25303;48.896;13.342;2023-07-08T15:39:44;4.13;;;2.58;;
39612;SDS011;25303;48.896;13.342;2023-07-08T15:42:29;4.45;;;2.45;;
39612;SDS011;25303;48.896;13.342;2023-07-08T15:45:13;2.90;;;2.38;;
39612;SDS011;25303;48.896;13.342;2023-07-08T15:47:57;6.95;;;3.00;;
39612;SDS011;25303;48.896;13.342;2023-07-08T15:50:41;4.18;;;2.42;;
39612;SDS011;25303;48.896;13.342;2023-07-08T15:53:24;2.53;;;2.20;;
39612;SDS011;25303;48.896;13.342;2023-07-08T15:56:07;3.72;;;2.55;;
39612;SDS011;25303;48.896;13.342;2023-07-08T15:58:55;5.00;;;2.10;;
39612;SDS011;25303;48.896;13.342;2023-07-08T16:04:23;3.40;;;2.20;;
39612;SDS011;25303;48.896;13.342;2023-07-08T16:07:08;3.58;;;2.42;;
39612;SDS011;25303;48.896;13.342;2023-07-08T16:09:51;3.08;;;2.33;;
39612;SDS011;25303;48.896;13.342;2023-07-08T16:12:34;3.28;;;2.55;;
39612;SDS011;25303;48.896;13.342;2023-07-08T16:15:20;4.13;;;2.75;;
39612;SDS011;25303;48.896;13.342;2023-07-08T16:18:09;4.70;;;2.78;;
39612;SDS011;25303;48.896;13.342;2023-07-08T16:20:53;3.60;;;2.53;;
39612;SDS011;25303;48.896;13.342;2023-07-08T16:23:37;3.85;;;2.50;;
39612;SDS011;25303;48.896;13.342;2023-07-08T16:26:20;4.00;;;2.63;;
39612;SDS011;25303;48.896;13.342;2023-07-08T16:29:03;2.90;;;2.20;;
39612;SDS011;25303;48.896;13.342;2023-07-08T16:31:48;2.67;;;2.20;;
39612;SDS011;25303;48.896;13.342;2023-07-08T16:37:14;3.10;;;2.10;;
39612;SDS011;25303;48.896;13.342;2023-07-08T16:39:57;3.05;;;2.35;;
39612;SDS011;25303;48.896;13.342;2023-07-08T16:42:40;3.90;;;2.20;;
39612;SDS011;25303;48.896;13.342;2023-07-08T16:45:25;5.63;;;2.42;;
39612;SDS011;25303;48.896;13.342;2023-07-08T16:48:10;2.70;;;2.30;;